sensor_id;sensor_type;location;lat;lon;timestamp;temperature;humidity
52869;DHT22;39100;53.480;6.158;2023-03-01T00:01:27;1.00;99.90
52869;DHT22;39100;53.480;6.158;2023-03-01T00:03:53;1.00;99.90
52869;DHT22;39100;53.480;6.158;2023-03-01T00:06:19;1.00;99.90
52869;DHT22;39100;53.480;6.158;2023-03-01T00:08:45;1.00;99.90
52869;DHT22;39100;53.480;6.158;2023-03-01T00:11:23;1.00;99.90
52869;DHT22;39100;53.480;6.158;2023-03-01T00:13:50;1.00;99.90
52869;DHT22;39100;53.480;6.158;2023-03-01T00:16:17;1.00;99.90
52869;DHT22;39100;53.480;6.158;2023-03-01T00:18:43;1.00;99.90
52869;DHT22;39100;53.480;6.158;2023-03-01T00:21:09;1.00;99.90
52869;DHT22;39100;53.480;6.158;2023-03-01T00:23:35;0.90;99.90
52869;DHT22;39100;53.480;6.158;2023-03-01T00:26:01;0.90;99.90
52869;DHT22;39100;53.480;6.158;2023-03-01T00:28:27;1.30;99.90
52869;DHT22;39100;53.480;6.158;2023-03-01T00:30:52;0.90;99.90
52869;DHT22;39100;53.480;6.158;2023-03-01T00:33:18;0.80;99.90
52869;DHT22;39100;53.480;6.158;2023-03-01T00:35:43;0.80;99.90
52869;DHT22;39100;53.480;6.158;2023-03-01T00:38:09;0.80;99.90
52869;DHT22;39100;53.480;6.158;2023-03-01T00:40:35;0.80;99.90
52869;DHT22;39100;53.480;6.158;2023-03-01T00:43:00;0.80;99.90
52869;DHT22;39100;53.480;6.158;2023-03-01T00:45:26;0.80;99.90
52869;DHT22;39100;53.480;6.158;2023-03-01T00:47:52;0.80;99.90
52869;DHT22;39100;53.480;6.158;2023-03-01T00:50:18;0.70;99.90
52869;DHT22;39100;53.480;6.158;2023-03-01T00:52:44;0.70;99.90
52869;DHT22;39100;53.480;6.158;2023-03-01T00:55:10;0.70;99.90
52869;DHT22;39100;53.480;6.158;2023-03-01T00:57:36;0.70;99.90
52869;DHT22;39100;53.480;6.158;2023-03-01T01:00:02;0.70;99.90
52869;DHT22;39100;53.480;6.158;2023-03-01T01:02:29;0.70;99.90
52869;DHT22;39100;53.480;6.158;2023-03-01T01:04:54;0.70;99.90
52869;DHT22;39100;53.480;6.158;2023-03-01T01:07:20;0.60;99.90
52869;DHT22;39100;53.480;6.158;2023-03-01T01:09:46;0.60;99.90
52869;DHT22;39100;53.480;6.158;2023-03-01T01:12:11;0.60;99.90
52869;DHT22;39100;53.480;6.158;2023-03-01T01:14:37;0.60;99.90
52869;DHT22;39100;53.480;6.158;2023-03-01T01:17:02;0.60;99.90
52869;DHT22;39100;53.480;6.158;2023-03-01T01:19:28;0.60;99.90
52869;DHT22;39100;53.480;6.158;2023-03-01T01:21:53;0.60;99.90
52869;DHT22;39100;53.480;6.158;2023-03-01T01:24:19;0.60;99.90
52869;DHT22;39100;53.480;6.158;2023-03-01T01:26:45;0.60;99.90
52869;DHT22;39100;53.480;6.158;2023-03-01T01:29:11;0.70;99.90
52869;DHT22;39100;53.480;6.158;2023-03-01T01:31:37;0.70;99.90
52869;DHT22;39100;53.480;6.158;2023-03-01T01:34:03;0.70;99.90
52869;DHT22;39100;53.480;6.158;2023-03-01T01:36:29;0.70;99.90
52869;DHT22;39100;53.480;6.158;2023-03-01T01:38:55;0.80;99.90
52869;DHT22;39100;53.480;6.158;2023-03-01T01:41:21;0.70;99.90
52869;DHT22;39100;53.480;6.158;2023-03-01T01:43:48;0.70;99.90
52869;DHT22;39100;53.480;6.158;2023-03-01T01:46:32;0.70;99.90
52869;DHT22;39100;53.480;6.158;2023-03-01T01:49:00;0.80;99.90
52869;DHT22;39100;53.480;6.158;2023-03-01T01:51:35;0.80;99.90
52869;DHT22;39100;53.480;6.158;2023-03-01T01:54:05;0.70;99.90
52869;DHT22;39100;53.480;6.158;2023-03-01T01:56:33;0.70;99.90
52869;DHT22;39100;53.480;6.158;2023-03-01T01:58:58;0.70;99.90
52869;DHT22;39100;53.480;6.158;2023-03-01T02:01:24;0.70;99.90
52869;DHT22;39100;53.480;6.158;2023-03-01T02:03:50;0.70;99.90
52869;DHT22;39100;53.480;6.158;2023-03-01T02:08:41;0.70;99.90
52869;DHT22;39100;53.480;6.158;2023-03-01T02:11:07;0.70;99.90
52869;DHT22;39100;53.480;6.158;2023-03-01T02:13:34;0.70;99.90
52869;DHT22;39100;53.480;6.158;2023-03-01T02:16:02;0.70;99.90
52869;DHT22;39100;53.480;6.158;2023-03-01T02:18:27;0.70;99.90
52869;DHT22;39100;53.480;6.158;2023-03-01T02:23:18;0.70;99.90
52869;DHT22;39100;53.480;6.158;2023-03-01T02:25:47;0.70;99.90
52869;DHT22;39100;53.480;6.158;2023-03-01T02:30:42;0.70;99.90
52869;DHT22;39100;53.480;6.158;2023-03-01T02:33:29;0.70;99.90
52869;DHT22;39100;53.480;6.158;2023-03-01T02:35:58;0.70;99.90
52869;DHT22;39100;53.480;6.158;2023-03-01T02:38:24;0.70;99.90
52869;DHT22;39100;53.480;6.158;2023-03-01T02:40:50;0.70;99.90
52869;DHT22;39100;53.480;6.158;2023-03-01T02:43:16;0.70;99.90
52869;DHT22;39100;53.480;6.158;2023-03-01T02:45:50;0.70;99.90
52869;DHT22;39100;53.480;6.158;2023-03-01T02:48:17;0.70;99.90
52869;DHT22;39100;53.480;6.158;2023-03-01T02:50:45;0.70;99.90
52869;DHT22;39100;53.480;6.158;2023-03-01T02:53:17;0.70;99.90
52869;DHT22;39100;53.480;6.158;2023-03-01T02:55:47;0.70;99.90
52869;DHT22;39100;53.480;6.158;2023-03-01T02:58:13;0.70;99.90
52869;DHT22;39100;53.480;6.158;2023-03-01T03:00:40;0.80;99.90
52869;DHT22;39100;53.480;6.158;2023-03-01T03:03:15;0.80;99.90
52869;DHT22;39100;53.480;6.158;2023-03-01T03:05:41;0.80;99.90
52869;DHT22;39100;53.480;6.158;2023-03-01T03:08:06;0.80;99.90
52869;DHT22;39100;53.480;6.158;2023-03-01T03:10:34;0.90;99.90
52869;DHT22;39100;53.480;6.158;2023-03-01T03:13:04;0.90;99.90
52869;DHT22;39100;53.480;6.158;2023-03-01T03:15:30;1.00;99.90
52869;DHT22;39100;53.480;6.158;2023-03-01T03:17:57;1.00;99.90
52869;DHT22;39100;53.480;6.158;2023-03-01T03:20:23;1.10;99.90
52869;DHT22;39100;53.480;6.158;2023-03-01T03:22:50;1.10;99.90
52869;DHT22;39100;53.480;6.158;2023-03-01T03:25:16;1.10;99.90
52869;DHT22;39100;53.480;6.158;2023-03-01T03:27:43;1.20;99.90
52869;DHT22;39100;53.480;6.158;2023-03-01T03:30:10;1.20;99.90
52869;DHT22;39100;53.480;6.158;2023-03-01T03:32:39;1.20;99.90
52869;DHT22;39100;53.480;6.158;2023-03-01T03:35:05;1.20;99.90
52869;DHT22;39100;53.480;6.158;2023-03-01T03:37:41;1.30;99.90
52869;DHT22;39100;53.480;6.158;2023-03-01T03:40:25;1.30;99.90
52869;DHT22;39100;53.480;6.158;2023-03-01T03:42:51;1.40;99.90
52869;DHT22;39100;53.480;6.158;2023-03-01T03:45:16;1.50;99.90
52869;DHT22;39100;53.480;6.158;2023-03-01T03:47:42;1.60;99.90
52869;DHT22;39100;53.480;6.158;2023-03-01T03:50:08;1.70;99.90
52869;DHT22;39100;53.480;6.158;2023-03-01T03:52:34;1.80;99.90
52869;DHT22;39100;53.480;6.158;2023-03-01T03:55:00;1.80;99.90
52869;DHT22;39100;53.480;6.158;2023-03-01T03:57:25;1.90;99.90
52869;DHT22;39100;53.480;6.158;2023-03-01T03:59:50;2.00;99.90
52869;DHT22;39100;53.480;6.158;2023-03-01T04:02:16;1.90;99.90
52869;DHT22;39100;53.480;6.158;2023-03-01T04:04:50;1.90;99.90
52869;DHT22;39100;53.480;6.158;2023-03-01T04:07:16;1.90;99.90
52869;DHT22;39100;53.480;6.158;2023-03-01T04:09:42;2.00;99.90
52869;DHT22;39100;53.480;6.158;2023-03-01T04:12:08;2.00;99.90
52869;DHT22;39100;53.480;6.158;2023-03-01T04:14:33;2.00;99.90
52869;DHT22;39100;53.480;6.158;2023-03-01T04:16:59;1.90;99.90
52869;DHT22;39100;53.480;6.158;2023-03-01T04:19:24;1.90;99.90
52869;DHT22;39100;53.480;6.158;2023-03-01T04:21:50;2.40;99.90
52869;DHT22;39100;53.480;6.158;2023-03-01T04:24:15;1.90;99.90
52869;DHT22;39100;53.480;6.158;2023-03-01T04:26:41;1.80;99.90
52869;DHT22;39100;53.480;6.158;2023-03-01T04:29:07;1.80;99.90
52869;DHT22;39100;53.480;6.158;2023-03-01T04:31:34;1.80;99.90
52869;DHT22;39100;53.480;6.158;2023-03-01T04:33:59;1.80;99.90
52869;DHT22;39100;53.480;6.158;2023-03-01T04:36:26;1.90;99.90
52869;DHT22;39100;53.480;6.158;2023-03-01T04:38:53;1.90;99.90
52869;DHT22;39100;53.480;6.158;2023-03-01T04:41:19;2.00;99.90
52869;DHT22;39100;53.480;6.158;2023-03-01T04:43:45;2.10;99.90
52869;DHT22;39100;53.480;6.158;2023-03-01T04:46:11;2.20;99.90
52869;DHT22;39100;53.480;6.158;2023-03-01T04:48:39;2.20;99.90
52869;DHT22;39100;53.480;6.158;2023-03-01T04:51:05;2.50;99.90
52869;DHT22;39100;53.480;6.158;2023-03-01T04:53:31;2.20;99.90
52869;DHT22;39100;53.480;6.158;2023-03-01T04:55:58;2.10;99.90
52869;DHT22;39100;53.480;6.158;2023-03-01T04:58:24;3.30;99.90
52869;DHT22;39100;53.480;6.158;2023-03-01T05:00:49;2.10;99.90
52869;DHT22;39100;53.480;6.158;2023-03-01T05:03:15;2.10;99.90
52869;DHT22;39100;53.480;6.158;2023-03-01T05:05:43;2.20;99.90
52869;DHT22;39100;53.480;6.158;2023-03-01T05:08:09;2.10;99.90
52869;DHT22;39100;53.480;6.158;2023-03-01T05:10:43;2.00;99.90
52869;DHT22;39100;53.480;6.158;2023-03-01T05:13:09;1.90;99.90
52869;DHT22;39100;53.480;6.158;2023-03-01T05:15:34;1.80;99.90
52869;DHT22;39100;53.480;6.158;2023-03-01T05:18:01;1.80;99.90
52869;DHT22;39100;53.480;6.158;2023-03-01T05:20:27;1.70;99.90
52869;DHT22;39100;53.480;6.158;2023-03-01T05:22:54;1.90;99.90
52869;DHT22;39100;53.480;6.158;2023-03-01T05:25:20;1.60;99.90
52869;DHT22;39100;53.480;6.158;2023-03-01T05:27:46;1.50;99.90
52869;DHT22;39100;53.480;6.158;2023-03-01T05:30:12;1.50;99.90
52869;DHT22;39100;53.480;6.158;2023-03-01T05:32:41;1.50;99.90
52869;DHT22;39100;53.480;6.158;2023-03-01T05:35:08;1.50;99.90
52869;DHT22;39100;53.480;6.158;2023-03-01T05:37:34;1.40;99.90
52869;DHT22;39100;53.480;6.158;2023-03-01T05:40:01;1.40;99.90
52869;DHT22;39100;53.480;6.158;2023-03-01T05:42:26;1.50;99.90
52869;DHT22;39100;53.480;6.158;2023-03-01T05:44:52;1.50;99.90
52869;DHT22;39100;53.480;6.158;2023-03-01T05:47:17;1.50;99.90
52869;DHT22;39100;53.480;6.158;2023-03-01T05:49:42;1.50;99.90
52869;DHT22;39100;53.480;6.158;2023-03-01T05:52:08;1.60;99.90
52869;DHT22;39100;53.480;6.158;2023-03-01T05:54:33;1.50;99.90
52869;DHT22;39100;53.480;6.158;2023-03-01T05:56:59;1.60;99.90
52869;DHT22;39100;53.480;6.158;2023-03-01T05:59:24;1.60;99.90
52869;DHT22;39100;53.480;6.158;2023-03-01T06:01:53;1.60;99.90
52869;DHT22;39100;53.480;6.158;2023-03-01T06:04:18;1.70;99.90
52869;DHT22;39100;53.480;6.158;2023-03-01T06:06:44;1.70;99.90
52869;DHT22;39100;53.480;6.158;2023-03-01T06:09:09;1.60;99.90
52869;DHT22;39100;53.480;6.158;2023-03-01T06:11:35;1.60;99.90
52869;DHT22;39100;53.480;6.158;2023-03-01T06:14:01;1.60;99.90
52869;DHT22;39100;53.480;6.158;2023-03-01T06:16:27;1.50;99.90
52869;DHT22;39100;53.480;6.158;2023-03-01T06:18:52;1.60;99.90
52869;DHT22;39100;53.480;6.158;2023-03-01T06:21:18;1.50;99.90
52869;DHT22;39100;53.480;6.158;2023-03-01T06:23:43;1.40;99.90
52869;DHT22;39100;53.480;6.158;2023-03-01T06:26:09;1.40;99.90
52869;DHT22;39100;53.480;6.158;2023-03-01T06:28:35;1.50;99.90
52869;DHT22;39100;53.480;6.158;2023-03-01T06:31:00;1.50;99.90
52869;DHT22;39100;53.480;6.158;2023-03-01T06:33:26;1.50;99.90
52869;DHT22;39100;53.480;6.158;2023-03-01T06:35:53;1.50;99.90
52869;DHT22;39100;53.480;6.158;2023-03-01T06:38:19;1.60;99.90
52869;DHT22;39100;53.480;6.158;2023-03-01T06:40:45;1.60;99.90
52869;DHT22;39100;53.480;6.158;2023-03-01T06:43:10;1.50;99.90
52869;DHT22;39100;53.480;6.158;2023-03-01T06:45:36;1.50;99.90
52869;DHT22;39100;53.480;6.158;2023-03-01T06:48:03;1.50;99.90
52869;DHT22;39100;53.480;6.158;2023-03-01T06:50:29;1.50;99.90
52869;DHT22;39100;53.480;6.158;2023-03-01T06:52:57;1.50;99.90
52869;DHT22;39100;53.480;6.158;2023-03-01T06:55:23;1.50;99.90
52869;DHT22;39100;53.480;6.158;2023-03-01T06:57:48;1.50;99.90
52869;DHT22;39100;53.480;6.158;2023-03-01T07:00:14;1.50;99.90
52869;DHT22;39100;53.480;6.158;2023-03-01T07:02:40;1.60;99.90
52869;DHT22;39100;53.480;6.158;2023-03-01T07:05:06;1.70;99.90
52869;DHT22;39100;53.480;6.158;2023-03-01T07:07:32;1.70;99.90
52869;DHT22;39100;53.480;6.158;2023-03-01T07:09:57;1.70;99.90
52869;DHT22;39100;53.480;6.158;2023-03-01T07:12:23;1.70;99.90
52869;DHT22;39100;53.480;6.158;2023-03-01T07:14:48;1.90;99.90
52869;DHT22;39100;53.480;6.158;2023-03-01T07:17:14;2.00;99.90
52869;DHT22;39100;53.480;6.158;2023-03-01T07:19:39;2.10;99.90
52869;DHT22;39100;53.480;6.158;2023-03-01T07:22:05;2.10;99.90
52869;DHT22;39100;53.480;6.158;2023-03-01T07:24:33;2.10;99.90
52869;DHT22;39100;53.480;6.158;2023-03-01T07:26:58;2.20;99.90
52869;DHT22;39100;53.480;6.158;2023-03-01T07:29:24;2.20;99.90
52869;DHT22;39100;53.480;6.158;2023-03-01T07:31:50;2.40;99.90
52869;DHT22;39100;53.480;6.158;2023-03-01T07:34:16;2.70;99.90
52869;DHT22;39100;53.480;6.158;2023-03-01T07:36:41;2.90;99.90
52869;DHT22;39100;53.480;6.158;2023-03-01T07:39:09;3.10;99.90
52869;DHT22;39100;53.480;6.158;2023-03-01T07:41:35;3.20;99.90
52869;DHT22;39100;53.480;6.158;2023-03-01T07:44:00;3.40;99.90
52869;DHT22;39100;53.480;6.158;2023-03-01T07:46:26;3.70;99.90
52869;DHT22;39100;53.480;6.158;2023-03-01T07:48:51;4.00;99.90
52869;DHT22;39100;53.480;6.158;2023-03-01T07:51:17;4.30;99.90
52869;DHT22;39100;53.480;6.158;2023-03-01T07:53:44;4.50;99.90
52869;DHT22;39100;53.480;6.158;2023-03-01T07:56:11;4.70;99.90
52869;DHT22;39100;53.480;6.158;2023-03-01T07:58:38;4.90;99.90
52869;DHT22;39100;53.480;6.158;2023-03-01T08:01:07;5.10;99.90
52869;DHT22;39100;53.480;6.158;2023-03-01T08:03:33;5.30;99.90
52869;DHT22;39100;53.480;6.158;2023-03-01T08:05:59;5.50;99.90
52869;DHT22;39100;53.480;6.158;2023-03-01T08:08:25;5.70;99.90
52869;DHT22;39100;53.480;6.158;2023-03-01T08:10:51;5.90;99.90
52869;DHT22;39100;53.480;6.158;2023-03-01T08:13:16;5.90;99.90
52869;DHT22;39100;53.480;6.158;2023-03-01T08:15:50;6.00;99.90
52869;DHT22;39100;53.480;6.158;2023-03-01T08:18:16;5.90;99.90
52869;DHT22;39100;53.480;6.158;2023-03-01T08:20:42;5.90;99.90
52869;DHT22;39100;53.480;6.158;2023-03-01T08:23:07;5.70;99.90
52869;DHT22;39100;53.480;6.158;2023-03-01T08:25:33;5.60;99.90
52869;DHT22;39100;53.480;6.158;2023-03-01T08:27:58;5.50;99.90
52869;DHT22;39100;53.480;6.158;2023-03-01T08:30:24;5.50;99.90
52869;DHT22;39100;53.480;6.158;2023-03-01T08:32:49;5.40;99.90
52869;DHT22;39100;53.480;6.158;2023-03-01T08:35:15;5.50;99.90
52869;DHT22;39100;53.480;6.158;2023-03-01T08:37:41;5.50;99.90
52869;DHT22;39100;53.480;6.158;2023-03-01T08:40:06;5.60;99.90
52869;DHT22;39100;53.480;6.158;2023-03-01T08:42:33;5.70;99.90
52869;DHT22;39100;53.480;6.158;2023-03-01T08:44:59;5.60;99.90
52869;DHT22;39100;53.480;6.158;2023-03-01T08:47:24;5.70;99.90
52869;DHT22;39100;53.480;6.158;2023-03-01T08:49:51;5.80;99.90
52869;DHT22;39100;53.480;6.158;2023-03-01T08:52:19;5.90;99.90
52869;DHT22;39100;53.480;6.158;2023-03-01T08:54:44;6.10;99.90
52869;DHT22;39100;53.480;6.158;2023-03-01T08:57:10;6.30;99.90
52869;DHT22;39100;53.480;6.158;2023-03-01T08:59:35;6.60;99.90
52869;DHT22;39100;53.480;6.158;2023-03-01T09:02:03;7.10;99.90
52869;DHT22;39100;53.480;6.158;2023-03-01T09:04:28;7.40;99.90
52869;DHT22;39100;53.480;6.158;2023-03-01T09:06:54;7.40;99.90
52869;DHT22;39100;53.480;6.158;2023-03-01T09:09:20;7.60;99.90
52869;DHT22;39100;53.480;6.158;2023-03-01T09:11:45;8.00;99.90
52869;DHT22;39100;53.480;6.158;2023-03-01T09:14:12;8.30;99.90
52869;DHT22;39100;53.480;6.158;2023-03-01T09:16:37;8.60;99.90
52869;DHT22;39100;53.480;6.158;2023-03-01T09:19:03;8.90;99.90
52869;DHT22;39100;53.480;6.158;2023-03-01T09:21:29;8.90;99.90
52869;DHT22;39100;53.480;6.158;2023-03-01T09:23:55;8.90;99.90
52869;DHT22;39100;53.480;6.158;2023-03-01T09:26:21;8.60;99.90
52869;DHT22;39100;53.480;6.158;2023-03-01T09:28:48;8.50;99.90
52869;DHT22;39100;53.480;6.158;2023-03-01T09:31:14;8.60;99.90
52869;DHT22;39100;53.480;6.158;2023-03-01T09:33:40;8.50;99.90
52869;DHT22;39100;53.480;6.158;2023-03-01T09:36:07;8.70;99.90
52869;DHT22;39100;53.480;6.158;2023-03-01T09:38:33;9.20;99.90
52869;DHT22;39100;53.480;6.158;2023-03-01T09:40:59;9.60;99.90
52869;DHT22;39100;53.480;6.158;2023-03-01T09:45:50;10.10;99.90
52869;DHT22;39100;53.480;6.158;2023-03-01T09:48:18;10.20;99.90
52869;DHT22;39100;53.480;6.158;2023-03-01T09:50:47;10.20;99.90
52869;DHT22;39100;53.480;6.158;2023-03-01T09:53:15;9.60;99.90
52869;DHT22;39100;53.480;6.158;2023-03-01T09:55:59;9.30;99.90
52869;DHT22;39100;53.480;6.158;2023-03-01T10:01:09;9.00;99.90
52869;DHT22;39100;53.480;6.158;2023-03-01T10:03:41;9.10;99.90
52869;DHT22;39100;53.480;6.158;2023-03-01T10:06:14;9.10;99.90
52869;DHT22;39100;53.480;6.158;2023-03-01T10:14:27;9.40;99.90
52869;DHT22;39100;53.480;6.158;2023-03-01T10:16:55;9.20;99.90
52869;DHT22;39100;53.480;6.158;2023-03-01T10:21:49;8.80;99.90
52869;DHT22;39100;53.480;6.158;2023-03-01T10:24:16;8.70;99.90
52869;DHT22;39100;53.480;6.158;2023-03-01T10:26:53;8.90;99.90
52869;DHT22;39100;53.480;6.158;2023-03-01T10:29:20;8.60;99.90
52869;DHT22;39100;53.480;6.158;2023-03-01T10:31:48;8.70;99.90
52869;DHT22;39100;53.480;6.158;2023-03-01T10:34:18;8.70;99.90
52869;DHT22;39100;53.480;6.158;2023-03-01T10:36:47;8.70;99.90
52869;DHT22;39100;53.480;6.158;2023-03-01T10:39:20;8.90;99.90
52869;DHT22;39100;53.480;6.158;2023-03-01T10:42:19;9.00;99.90
52869;DHT22;39100;53.480;6.158;2023-03-01T10:44:47;9.20;99.90
52869;DHT22;39100;53.480;6.158;2023-03-01T10:47:17;9.40;99.90
52869;DHT22;39100;53.480;6.158;2023-03-01T10:52:21;9.70;99.90
52869;DHT22;39100;53.480;6.158;2023-03-01T10:54:53;10.00;99.90
52869;DHT22;39100;53.480;6.158;2023-03-01T10:57:38;10.40;99.90
52869;DHT22;39100;53.480;6.158;2023-03-01T11:00:24;10.70;99.90
52869;DHT22;39100;53.480;6.158;2023-03-01T11:05:25;10.90;99.90
52869;DHT22;39100;53.480;6.158;2023-03-01T11:07:55;10.90;99.90
52869;DHT22;39100;53.480;6.158;2023-03-01T11:10:23;10.90;99.90
52869;DHT22;39100;53.480;6.158;2023-03-01T11:12:49;10.90;99.90
52869;DHT22;39100;53.480;6.158;2023-03-01T11:15:23;10.90;99.90
52869;DHT22;39100;53.480;6.158;2023-03-01T11:17:49;11.00;99.90
52869;DHT22;39100;53.480;6.158;2023-03-01T11:20:18;11.30;99.90
52869;DHT22;39100;53.480;6.158;2023-03-01T11:25:11;11.80;99.90
52869;DHT22;39100;53.480;6.158;2023-03-01T11:27:40;12.10;99.90
52869;DHT22;39100;53.480;6.158;2023-03-01T11:32:44;13.50;99.90
52869;DHT22;39100;53.480;6.158;2023-03-01T11:35:16;14.20;99.90
52869;DHT22;39100;53.480;6.158;2023-03-01T11:38:01;14.40;99.90
52869;DHT22;39100;53.480;6.158;2023-03-01T11:40:29;14.50;99.90
52869;DHT22;39100;53.480;6.158;2023-03-01T11:42:59;14.70;99.90
52869;DHT22;39100;53.480;6.158;2023-03-01T11:45:26;15.00;99.90
52869;DHT22;39100;53.480;6.158;2023-03-01T11:48:02;15.10;99.90
52869;DHT22;39100;53.480;6.158;2023-03-01T11:53:02;15.20;99.90
52869;DHT22;39100;53.480;6.158;2023-03-01T12:13:40;17.00;99.90
52869;DHT22;39100;53.480;6.158;2023-03-01T12:16:13;17.10;99.90
52869;DHT22;39100;53.480;6.158;2023-03-01T12:24:06;17.40;99.90
52869;DHT22;39100;53.480;6.158;2023-03-01T12:26:36;17.40;99.90
52869;DHT22;39100;53.480;6.158;2023-03-01T12:32:36;18.70;99.90
52869;DHT22;39100;53.480;6.158;2023-03-01T12:40:02;20.60;99.90
52869;DHT22;39100;53.480;6.158;2023-03-01T12:48:04;20.90;99.90
52869;DHT22;39100;53.480;6.158;2023-03-01T12:51:33;21.00;99.90
52869;DHT22;39100;53.480;6.158;2023-03-01T12:53:39;21.80;99.90
52869;DHT22;39100;53.480;6.158;2023-03-01T12:56:08;21.30;99.90
52869;DHT22;39100;53.480;6.158;2023-03-01T13:01:08;21.60;99.90
52869;DHT22;39100;53.480;6.158;2023-03-01T13:11:43;22.00;99.90
52869;DHT22;39100;53.480;6.158;2023-03-01T13:14:34;21.60;98.60
52869;DHT22;39100;53.480;6.158;2023-03-01T13:17:00;22.30;99.00
52869;DHT22;39100;53.480;6.158;2023-03-01T13:19:26;21.90;98.10
52869;DHT22;39100;53.480;6.158;2023-03-01T13:21:54;22.00;98.00
52869;DHT22;39100;53.480;6.158;2023-03-01T13:29:46;22.30;97.60
52869;DHT22;39100;53.480;6.158;2023-03-01T13:32:21;22.30;96.30
52869;DHT22;39100;53.480;6.158;2023-03-01T13:34:48;22.40;96.50
52869;DHT22;39100;53.480;6.158;2023-03-01T13:37:22;22.60;96.70
52869;DHT22;39100;53.480;6.158;2023-03-01T13:39:48;22.90;96.10
52869;DHT22;39100;53.480;6.158;2023-03-01T13:44:57;23.70;95.00
52869;DHT22;39100;53.480;6.158;2023-03-01T13:47:23;23.40;95.50
52869;DHT22;39100;53.480;6.158;2023-03-01T13:49:51;23.50;94.30
52869;DHT22;39100;53.480;6.158;2023-03-01T13:54:59;22.80;94.10
52869;DHT22;39100;53.480;6.158;2023-03-01T13:57:29;22.20;93.80
52869;DHT22;39100;53.480;6.158;2023-03-01T13:59:55;21.30;93.90
52869;DHT22;39100;53.480;6.158;2023-03-01T14:02:21;20.40;95.10
52869;DHT22;39100;53.480;6.158;2023-03-01T14:04:55;19.40;96.20
52869;DHT22;39100;53.480;6.158;2023-03-01T14:07:22;18.80;97.30
52869;DHT22;39100;53.480;6.158;2023-03-01T14:09:53;18.10;98.30
52869;DHT22;39100;53.480;6.158;2023-03-01T14:17:36;16.20;99.90
52869;DHT22;39100;53.480;6.158;2023-03-01T14:20:11;15.70;99.90
52869;DHT22;39100;53.480;6.158;2023-03-01T14:22:37;15.10;99.90
52869;DHT22;39100;53.480;6.158;2023-03-01T14:25:25;14.80;99.90
52869;DHT22;39100;53.480;6.158;2023-03-01T14:27:52;14.50;99.90
52869;DHT22;39100;53.480;6.158;2023-03-01T14:30:39;14.20;99.90
52869;DHT22;39100;53.480;6.158;2023-03-01T14:33:16;13.80;99.90
52869;DHT22;39100;53.480;6.158;2023-03-01T14:35:42;13.80;99.90
52869;DHT22;39100;53.480;6.158;2023-03-01T14:38:20;13.20;99.90
52869;DHT22;39100;53.480;6.158;2023-03-01T14:40:46;13.00;99.90
52869;DHT22;39100;53.480;6.158;2023-03-01T14:43:16;12.40;99.90
52869;DHT22;39100;53.480;6.158;2023-03-01T14:45:46;12.20;99.90
52869;DHT22;39100;53.480;6.158;2023-03-01T14:48:13;11.90;99.90
52869;DHT22;39100;53.480;6.158;2023-03-01T14:50:42;11.80;99.90
52869;DHT22;39100;53.480;6.158;2023-03-01T14:53:15;11.60;99.90
52869;DHT22;39100;53.480;6.158;2023-03-01T14:55:42;11.40;99.90
52869;DHT22;39100;53.480;6.158;2023-03-01T14:58:13;11.30;99.90
52869;DHT22;39100;53.480;6.158;2023-03-01T15:00:39;11.10;99.90
52869;DHT22;39100;53.480;6.158;2023-03-01T15:03:08;10.90;99.90
52869;DHT22;39100;53.480;6.158;2023-03-01T15:05:38;10.80;99.90
52869;DHT22;39100;53.480;6.158;2023-03-01T15:08:04;10.80;99.90
52869;DHT22;39100;53.480;6.158;2023-03-01T15:10:31;10.70;99.90
52869;DHT22;39100;53.480;6.158;2023-03-01T15:13:10;10.60;99.90
52869;DHT22;39100;53.480;6.158;2023-03-01T15:15:41;10.50;99.90
52869;DHT22;39100;53.480;6.158;2023-03-01T15:18:13;10.40;99.90
52869;DHT22;39100;53.480;6.158;2023-03-01T15:20:40;10.30;99.90
52869;DHT22;39100;53.480;6.158;2023-03-01T15:23:06;10.30;99.90
52869;DHT22;39100;53.480;6.158;2023-03-01T15:25:43;11.30;99.90
52869;DHT22;39100;53.480;6.158;2023-03-01T15:28:18;10.40;99.90
52869;DHT22;39100;53.480;6.158;2023-03-01T15:30:44;10.10;99.90
52869;DHT22;39100;53.480;6.158;2023-03-01T15:33:20;10.10;99.90
52869;DHT22;39100;53.480;6.158;2023-03-01T15:35:58;10.00;99.90
52869;DHT22;39100;53.480;6.158;2023-03-01T15:41:00;9.70;99.90
52869;DHT22;39100;53.480;6.158;2023-03-01T15:43:40;9.60;99.90
52869;DHT22;39100;53.480;6.158;2023-03-01T15:46:05;9.50;99.90
52869;DHT22;39100;53.480;6.158;2023-03-01T15:48:40;9.40;99.90
52869;DHT22;39100;53.480;6.158;2023-03-01T15:51:09;9.20;99.90
52869;DHT22;39100;53.480;6.158;2023-03-01T15:53:36;9.10;99.90
52869;DHT22;39100;53.480;6.158;2023-03-01T15:56:02;9.00;99.90
52869;DHT22;39100;53.480;6.158;2023-03-01T15:58:28;8.90;99.90
52869;DHT22;39100;53.480;6.158;2023-03-01T16:00:53;8.80;99.90
52869;DHT22;39100;53.480;6.158;2023-03-01T16:03:22;8.70;99.90
52869;DHT22;39100;53.480;6.158;2023-03-01T16:05:48;8.60;99.90
52869;DHT22;39100;53.480;6.158;2023-03-01T16:08:15;8.50;99.90
52869;DHT22;39100;53.480;6.158;2023-03-01T16:10:41;8.40;99.90
52869;DHT22;39100;53.480;6.158;2023-03-01T16:13:09;8.40;99.90
52869;DHT22;39100;53.480;6.158;2023-03-01T16:15:35;8.30;99.90
52869;DHT22;39100;53.480;6.158;2023-03-01T16:18:01;8.20;99.90
52869;DHT22;39100;53.480;6.158;2023-03-01T16:20:27;8.40;99.90
52869;DHT22;39100;53.480;6.158;2023-03-01T16:22:52;8.10;99.90
52869;DHT22;39100;53.480;6.158;2023-03-01T16:25:19;8.00;99.90
52869;DHT22;39100;53.480;6.158;2023-03-01T16:27:45;7.90;99.90
52869;DHT22;39100;53.480;6.158;2023-03-01T16:30:11;7.80;99.90
52869;DHT22;39100;53.480;6.158;2023-03-01T16:32:38;7.80;99.90
52869;DHT22;39100;53.480;6.158;2023-03-01T16:35:05;7.70;99.90
52869;DHT22;39100;53.480;6.158;2023-03-01T16:37:31;7.60;99.90
52869;DHT22;39100;53.480;6.158;2023-03-01T16:39:57;7.50;99.90
52869;DHT22;39100;53.480;6.158;2023-03-01T16:42:22;7.40;99.90
52869;DHT22;39100;53.480;6.158;2023-03-01T16:44:48;7.30;99.90
52869;DHT22;39100;53.480;6.158;2023-03-01T16:47:13;7.30;99.90
52869;DHT22;39100;53.480;6.158;2023-03-01T16:49:39;7.20;99.90
52869;DHT22;39100;53.480;6.158;2023-03-01T16:52:04;7.10;99.90
52869;DHT22;39100;53.480;6.158;2023-03-01T16:54:30;7.00;99.90
52869;DHT22;39100;53.480;6.158;2023-03-01T16:56:55;6.90;99.90
52869;DHT22;39100;53.480;6.158;2023-03-01T16:59:21;6.80;99.90
52869;DHT22;39100;53.480;6.158;2023-03-01T17:01:46;6.70;99.90
52869;DHT22;39100;53.480;6.158;2023-03-01T17:04:12;6.70;99.90
52869;DHT22;39100;53.480;6.158;2023-03-01T17:06:38;6.60;99.90
52869;DHT22;39100;53.480;6.158;2023-03-01T17:09:03;6.50;99.90
52869;DHT22;39100;53.480;6.158;2023-03-01T17:11:29;6.40;99.90
52869;DHT22;39100;53.480;6.158;2023-03-01T17:13:55;6.40;99.90
52869;DHT22;39100;53.480;6.158;2023-03-01T17:16:20;7.10;99.90
52869;DHT22;39100;53.480;6.158;2023-03-01T17:18:46;6.30;99.90
52869;DHT22;39100;53.480;6.158;2023-03-01T17:21:12;6.20;99.90
52869;DHT22;39100;53.480;6.158;2023-03-01T17:23:38;6.10;99.90
52869;DHT22;39100;53.480;6.158;2023-03-01T17:26:04;6.10;99.90